Time;durP1;ratioP1;P1;durP2;ratioP2;P2;SDS_P1;SDS_P2;PMS_P1;PMS_P2;Temp;Humidity;BMP_temperature;BMP_pressure;BME280_temperature;BME280_humidity;BME280_pressure;Samples;Min_cycle;Max_cycle;Signal;HPM_P1;HPM_P2
2022/03/10 04:00:32;;;;;;;2.33;1.65;;;17.20;47.20;;;;;;6126352;22;45770;31
2022/03/10 04:02:57;;;;;;;1.60;1.50;;;17.20;47.40;;;;;;4916235;28;45251;-64
2022/03/10 04:05:23;;;;;;;2.08;1.88;;;17.20;47.30;;;;;;4936441;28;45232;-64
2022/03/10 04:07:49;;;;;;;1.63;1.48;;;17.10;47.10;;;;;;4936305;28;45460;-64
2022/03/10 04:10:14;;;;;;;1.83;1.60;;;17.10;47.10;;;;;;4918682;28;47184;-64
2022/03/10 04:12:40;;;;;;;2.25;1.85;;;17.10;47.30;;;;;;4933698;28;45478;-64
2022/03/10 04:15:06;;;;;;;1.95;1.70;;;17.10;47.30;;;;;;4931887;28;45485;-64
2022/03/10 04:17:31;;;;;;;2.55;1.77;;;17.00;47.30;;;;;;4936206;28;44751;-64
2022/03/10 04:19:57;;;;;;;1.67;1.45;;;17.00;47.20;;;;;;4935661;28;45426;-65
2022/03/10 04:22:23;;;;;;;2.03;1.75;;;17.00;47.30;;;;;;4902805;28;45833;-65
2022/03/10 04:24:48;;;;;;;2.35;1.63;;;17.00;47.20;;;;;;4935104;28;45952;-65
2022/03/10 04:27:14;;;;;;;2.58;1.88;;;17.00;47.20;;;;;;4935129;28;45423;-65
2022/03/10 04:29:40;;;;;;;1.58;1.48;;;17.00;47.20;;;;;;4943544;28;47237;-65
2022/03/10 04:32:06;;;;;;;1.63;1.50;;;17.00;47.30;;;;;;4930422;28;45002;-65
2022/03/10 04:34:31;;;;;;;2.00;1.80;;;17.00;47.30;;;;;;4948480;28;45650;-65
2022/03/10 04:36:57;;;;;;;2.03;1.70;;;17.00;47.30;;;;;;4933267;28;45477;-65
2022/03/10 04:39:23;;;;;;;2.03;1.70;;;17.00;47.30;;;;;;4933918;28;46794;-65
2022/03/10 04:41:48;;;;;;;1.90;1.70;;;16.90;47.30;;;;;;4945423;28;46394;-65
2022/03/10 04:44:14;;;;;;;1.52;1.42;;;16.90;47.30;;;;;;4935065;28;45412;-65
2022/03/10 04:46:40;;;;;;;2.05;1.85;;;16.90;47.40;;;;;;4929330;28;45947;-65
2022/03/10 04:49:05;;;;;;;2.63;1.95;;;16.80;47.30;;;;;;4933190;28;45396;-65
2022/03/10 04:51:31;;;;;;;1.80;1.63;;;16.90;47.30;;;;;;4918929;28;45277;-65
2022/03/10 04:53:56;;;;;;;1.80;1.50;;;16.80;47.30;;;;;;4927137;28;45235;-65
2022/03/10 04:56:22;;;;;;;2.00;1.70;;;16.80;47.30;;;;;;4938655;28;44841;-64
2022/03/10 04:58:48;;;;;;;1.75;1.65;;;16.80;47.30;;;;;;4931205;28;46135;-64
2022/03/10 05:01:14;;;;;;;2.67;1.70;;;16.80;47.30;;;;;;4932117;28;45401;-65
2022/03/10 05:03:39;;;;;;;1.63;1.40;;;16.80;47.30;;;;;;4933707;28;45383;-64
2022/03/10 05:06:05;;;;;;;1.80;1.52;;;16.70;47.30;;;;;;4934172;28;45482;-65
2022/03/10 05:08:31;;;;;;;1.65;1.40;;;16.70;47.40;;;;;;4915937;28;45667;-65
2022/03/10 05:10:57;;;;;;;2.03;1.80;;;16.70;47.50;;;;;;4933169;28;45258;-65
2022/03/10 05:13:23;;;;;;;2.10;1.70;;;16.70;47.50;;;;;;4936106;28;45582;-65
2022/03/10 05:15:49;;;;;;;1.80;1.60;;;16.70;47.40;;;;;;4935686;28;45164;-65
2022/03/10 05:18:14;;;;;;;2.42;1.70;;;16.70;47.50;;;;;;4933861;28;45563;-65
2022/03/10 05:20:40;;;;;;;1.88;1.60;;;16.70;47.50;;;;;;4934967;28;45246;-65
2022/03/10 05:23:06;;;;;;;1.90;1.70;;;16.60;47.50;;;;;;4933288;28;45087;-64
2022/03/10 05:25:36;;;;;;;3.80;1.77;;;16.60;47.50;;;;;;4931257;28;45236;-65
2022/03/10 05:28:02;;;;;;;2.30;1.55;;;16.60;47.60;;;;;;4934325;28;45253;-65
2022/03/10 05:30:27;;;;;;;3.15;1.90;;;16.60;47.50;;;;;;4932984;28;45385;-65
2022/03/10 05:32:53;;;;;;;2.28;2.00;;;16.60;47.60;;;;;;4930458;28;45773;-65
2022/03/10 05:35:19;;;;;;;2.50;1.90;;;16.60;47.50;;;;;;4936424;28;44742;-65
2022/03/10 05:37:45;;;;;;;1.77;1.63;;;16.60;47.50;;;;;;4934074;28;46075;-65
2022/03/10 05:40:12;;;;;;;2.08;1.88;;;16.60;47.50;;;;;;4915576;28;45295;-65
2022/03/10 05:42:38;;;;;;;2.40;1.80;;;16.60;47.40;;;;;;4920498;28;45379;-65
2022/03/10 05:45:05;;;;;;;2.55;1.90;;;16.60;47.40;;;;;;4920175;28;45305;-65
2022/03/10 05:47:31;;;;;;;2.53;1.60;;;16.60;47.50;;;;;;4937741;28;45046;-65
2022/03/10 05:49:56;;;;;;;2.60;1.77;;;16.50;47.50;;;;;;4936998;28;44975;-65
2022/03/10 05:52:22;;;;;;;3.60;1.70;;;16.50;47.50;;;;;;4936637;28;45153;-65
2022/03/10 05:54:47;;;;;;;2.47;2.03;;;16.40;47.60;;;;;;4937392;28;45425;-65
2022/03/10 05:57:13;;;;;;;2.53;1.90;;;16.50;47.60;;;;;;4935012;28;46216;-65
2022/03/10 05:59:38;;;;;;;2.03;1.70;;;16.40;47.50;;;;;;4935695;28;45634;-65
2022/03/10 06:02:04;;;;;;;1.88;1.65;;;16.40;47.50;;;;;;4935461;28;45604;-65
2022/03/10 06:05:00;;;;;;;1.77;1.67;;;16.40;47.50;;;;;;4929864;28;45468;-66
2022/03/10 06:07:26;;;;;;;1.88;1.77;;;16.50;47.50;;;;;;4937447;28;45496;-65
2022/03/10 06:09:51;;;;;;;2.58;2.00;;;16.40;47.50;;;;;;4937482;28;45272;-65
2022/03/10 06:12:21;;;;;;;2.17;1.73;;;16.40;47.40;;;;;;4937835;28;45665;-65
2022/03/10 06:14:46;;;;;;;1.50;1.33;;;16.50;47.50;;;;;;4936892;28;45262;-65
2022/03/10 06:17:12;;;;;;;2.25;1.85;;;16.40;47.40;;;;;;4939216;28;46199;-65
2022/03/10 06:19:37;;;;;;;2.03;1.80;;;16.40;47.40;;;;;;4939134;28;45353;-65
2022/03/10 06:22:03;;;;;;;2.17;1.98;;;16.40;47.50;;;;;;4936830;28;45292;-65
2022/03/10 06:24:29;;;;;;;2.30;1.95;;;16.40;47.50;;;;;;4936939;28;45062;-65
2022/03/10 06:26:55;;;;;;;2.28;1.90;;;16.40;47.50;;;;;;4932602;28;44931;-65
2022/03/10 06:29:20;;;;;;;1.75;1.63;;;16.30;47.50;;;;;;4930398;28;45425;-64
2022/03/10 06:31:47;;;;;;;2.38;1.73;;;16.30;47.50;;;;;;4931933;28;45602;-65
2022/03/10 06:34:13;;;;;;;3.08;2.38;;;16.30;47.50;;;;;;4936793;28;45719;-65
2022/03/10 06:36:39;;;;;;;2.15;1.85;;;16.40;47.50;;;;;;4938485;28;44938;-65
2022/03/10 06:39:06;;;;;;;2.15;1.92;;;16.30;47.50;;;;;;4937705;28;45201;-64
2022/03/10 06:41:31;;;;;;;2.10;1.90;;;16.30;47.50;;;;;;4950991;28;45568;-65
2022/03/10 06:43:57;;;;;;;2.35;2.00;;;16.30;47.50;;;;;;4905815;28;45002;-65
2022/03/10 06:46:24;;;;;;;2.60;1.83;;;16.30;47.60;;;;;;4928845;28;46117;-65
2022/03/10 06:48:49;;;;;;;2.22;1.67;;;16.30;47.50;;;;;;4939814;28;45363;-65
2022/03/10 06:51:15;;;;;;;2.28;1.83;;;16.30;47.50;;;;;;4933305;28;45106;-65
2022/03/10 06:53:40;;;;;;;2.25;1.52;;;16.30;47.40;;;;;;4936135;28;44997;-64
2022/03/10 06:56:06;;;;;;;2.35;1.77;;;16.30;47.40;;;;;;4937204;28;45307;-64
2022/03/10 06:58:31;;;;;;;2.78;2.05;;;16.30;47.40;;;;;;4936895;28;45639;-64
2022/03/10 07:00:57;;;;;;;2.50;1.95;;;16.40;47.20;;;;;;4935949;28;45581;-64
2022/03/10 07:03:23;;;;;;;2.53;1.80;;;16.50;47.00;;;;;;4953071;28;45510;-64
2022/03/10 07:05:49;;;;;;;4.00;2.10;;;16.50;47.00;;;;;;4936599;28;45944;-64
2022/03/10 07:08:15;;;;;;;2.38;2.08;;;16.60;46.80;;;;;;4939831;28;45149;-64
2022/03/10 07:10:40;;;;;;;2.17;1.80;;;16.80;46.60;;;;;;4951101;28;45109;-65
2022/03/10 07:13:08;;;;;;;2.85;1.90;;;16.90;47.00;;;;;;4921036;28;45195;-62
2022/03/10 07:15:34;;;;;;;2.00;1.80;;;17.00;46.20;;;;;;4921151;28;47315;-63
2022/03/10 07:17:59;;;;;;;2.03;1.63;;;17.10;46.00;;;;;;4938099;28;44711;-63
2022/03/10 07:20:25;;;;;;;2.20;2.00;;;17.20;45.90;;;;;;4935285;28;45401;-63
2022/03/10 07:22:50;;;;;;;2.05;1.80;;;17.30;45.70;;;;;;4937965;28;45536;-63
2022/03/10 07:25:16;;;;;;;3.90;1.92;;;17.50;45.70;;;;;;4930822;28;45132;-63
2022/03/10 07:27:42;;;;;;;2.00;1.58;;;17.60;45.50;;;;;;4922724;28;45347;-64
2022/03/10 07:30:08;;;;;;;1.73;1.40;;;17.70;45.40;;;;;;4930526;28;45364;-64
2022/03/10 07:32:34;;;;;;;2.10;1.65;;;17.80;45.20;;;;;;4935001;28;45346;-63
2022/03/10 07:35:00;;;;;;;2.60;1.80;;;17.90;45.10;;;;;;4933207;28;45129;-64
2022/03/10 07:37:26;;;;;;;1.55;1.35;;;18.10;45.00;;;;;;4933599;28;45250;-64
2022/03/10 07:39:52;;;;;;;1.52;1.40;;;18.20;44.90;;;;;;4936566;28;45590;-64
2022/03/10 07:42:17;;;;;;;2.13;1.60;;;18.30;44.80;;;;;;4936185;28;45494;-64
2022/03/10 07:44:43;;;;;;;1.67;1.40;;;18.40;44.70;;;;;;4954206;28;45227;-64
2022/03/10 07:47:09;;;;;;;2.30;1.60;;;18.50;44.60;;;;;;4935717;28;45608;-64
2022/03/10 07:49:35;;;;;;;2.42;1.25;;;18.60;44.50;;;;;;4937164;28;45716;-64
2022/03/10 07:52:00;;;;;;;2.05;1.30;;;18.70;44.40;;;;;;4936577;28;45718;-64
2022/03/10 07:54:26;;;;;;;2.17;1.50;;;18.80;44.30;;;;;;4938261;28;46357;-63
2022/03/10 07:56:52;;;;;;;1.77;1.40;;;19.00;44.30;;;;;;4934266;28;44989;-62
2022/03/10 07:59:18;;;;;;;1.50;1.40;;;19.10;44.20;;;;;;4932659;28;45389;-63
2022/03/10 08:01:43;;;;;;;1.52;1.27;;;19.20;44.10;;;;;;4927270;28;45487;-63
2022/03/10 08:04:09;;;;;;;1.48;1.27;;;19.30;44.00;;;;;;4936176;28;45428;-62
2022/03/10 08:06:35;;;;;;;1.80;1.25;;;19.40;43.90;;;;;;4922015;28;45219;-63
2022/03/10 08:09:02;;;;;;;1.33;1.23;;;19.50;43.80;;;;;;4921128;28;45253;-63
2022/03/10 08:11:28;;;;;;;1.25;1.13;;;19.60;43.80;;;;;;4927456;28;44867;-62
2022/03/10 08:13:54;;;;;;;1.73;1.35;;;19.70;43.70;;;;;;4928973;28;45018;-63
2022/03/10 08:16:19;;;;;;;1.50;1.27;;;19.80;43.60;;;;;;4935386;28;45443;-62
2022/03/10 08:18:45;;;;;;;2.13;1.52;;;20.00;43.60;;;;;;4936346;28;45302;-63
2022/03/10 08:21:11;;;;;;;1.40;1.30;;;20.00;43.40;;;;;;4936734;28;45372;-63
2022/03/10 08:23:36;;;;;;;2.08;1.20;;;20.10;43.40;;;;;;4929993;28;46322;-63
2022/03/10 08:26:02;;;;;;;1.92;1.10;;;20.30;43.40;;;;;;4937241;28;45071;-63
2022/03/10 08:28:28;;;;;;;1.23;1.10;;;20.40;43.20;;;;;;4938701;28;45099;-64
2022/03/10 08:30:53;;;;;;;1.52;1.23;;;20.40;43.10;;;;;;4937239;28;45109;-64
2022/03/10 08:33:20;;;;;;;1.40;1.30;;;20.50;43.10;;;;;;4937559;28;45173;-63
2022/03/10 08:35:45;;;;;;;1.10;1.00;;;20.60;43.00;;;;;;4937666;28;45384;-64
2022/03/10 08:38:11;;;;;;;3.60;1.20;;;20.80;42.90;;;;;;4922381;28;45184;-64
2022/03/10 08:40:36;;;;;;;3.00;1.13;;;20.90;42.90;;;;;;4936504;28;45233;-63
2022/03/10 08:43:02;;;;;;;1.52;1.20;;;21.00;42.80;;;;;;4934494;28;45489;-64
2022/03/10 08:45:28;;;;;;;1.48;1.20;;;21.10;42.70;;;;;;4934518;28;45490;-64
2022/03/10 08:47:55;;;;;;;1.60;0.90;;;21.10;42.60;;;;;;4937361;28;45554;-64
2022/03/10 08:50:23;;;;;;;4.03;1.20;;;21.30;42.60;;;;;;4922508;28;45568;-65
2022/03/10 08:52:49;;;;;;;1.80;1.10;;;21.40;42.50;;;;;;4927537;28;45188;-66
2022/03/10 08:55:15;;;;;;;1.20;0.98;;;21.50;42.50;;;;;;4925696;28;45387;-66
2022/03/10 08:57:40;;;;;;;0.88;0.88;;;21.60;42.40;;;;;;4938815;28;45634;-67
2022/03/10 09:00:07;;;;;;;1.02;0.93;;;21.60;42.30;;;;;;4936916;28;45010;-66
2022/03/10 09:02:33;;;;;;;1.10;1.00;;;21.80;42.30;;;;;;4936297;28;46033;-66
2022/03/10 09:04:59;;;;;;;1.27;1.17;;;21.90;42.20;;;;;;4924221;28;45274;-66
2022/03/10 09:07:24;;;;;;;2.25;1.00;;;21.90;42.10;;;;;;4937311;28;45837;-66
2022/03/10 09:09:50;;;;;;;1.05;0.95;;;22.00;42.00;;;;;;4937104;28;44893;-66
2022/03/10 09:12:16;;;;;;;3.00;0.82;;;22.10;42.00;;;;;;4934463;28;46302;-65
2022/03/10 09:14:41;;;;;;;1.10;0.95;;;22.20;41.90;;;;;;4938224;28;45723;-65
2022/03/10 09:17:07;;;;;;;1.10;1.00;;;22.30;41.90;;;;;;4941500;28;45391;-66
2022/03/10 09:19:32;;;;;;;1.05;0.95;;;22.40;41.80;;;;;;4940332;28;45050;-65
2022/03/10 09:21:59;;;;;;;1.35;0.90;;;22.50;41.80;;;;;;4937012;28;46264;-65
2022/03/10 09:24:25;;;;;;;1.90;1.10;;;22.50;41.60;;;;;;4931983;28;45556;-65
2022/03/10 09:26:50;;;;;;;1.00;0.90;;;22.70;41.70;;;;;;4927981;28;45285;-64
2022/03/10 09:29:16;;;;;;;1.17;1.00;;;22.70;41.60;;;;;;4940360;28;45453;-64
2022/03/10 09:31:42;;;;;;;1.58;0.98;;;22.80;41.50;;;;;;4919362;28;46725;-63
2022/03/10 09:34:08;;;;;;;0.70;0.70;;;22.90;41.50;;;;;;4935010;28;45592;-63
2022/03/10 09:36:33;;;;;;;1.27;1.05;;;22.90;41.40;;;;;;4941502;28;45183;-64
2022/03/10 09:38:59;;;;;;;1.00;0.90;;;23.00;41.40;;;;;;4940524;28;45446;-65
2022/03/10 09:41:25;;;;;;;1.10;0.95;;;23.10;41.30;;;;;;4940791;28;46098;-65
2022/03/10 09:43:51;;;;;;;1.27;1.10;;;23.20;41.30;;;;;;4941047;28;45268;-65
2022/03/10 09:46:17;;;;;;;1.13;0.80;;;23.30;41.30;;;;;;4954434;28;44938;-64
2022/03/10 09:48:42;;;;;;;1.10;1.00;;;23.30;41.20;;;;;;4936765;28;45311;-63
2022/03/10 09:51:08;;;;;;;1.10;1.00;;;23.40;41.20;;;;;;4939177;28;46020;-64
2022/03/10 09:53:35;;;;;;;1.02;0.93;;;23.50;41.10;;;;;;4923524;28;45402;-64
2022/03/10 09:56:02;;;;;;;1.33;0.80;;;23.60;41.10;;;;;;4938539;28;45462;-64
2022/03/10 09:58:28;;;;;;;1.20;0.70;;;23.60;41.00;;;;;;4939849;28;45070;-64
2022/03/10 10:01:06;;;;;;;0.75;0.70;;;23.60;41.00;;;;;;4922760;28;45039;-64
2022/03/10 10:03:33;;;;;;;0.90;0.73;;;23.70;40.80;;;;;;4933206;28;45270;-64
2022/03/10 10:05:59;;;;;;;0.50;0.50;;;23.80;41.00;;;;;;4925893;28;45210;-64
2022/03/10 10:08:25;;;;;;;1.35;1.00;;;23.80;40.90;;;;;;4935005;28;45424;-65
2022/03/10 10:10:53;;;;;;;0.77;0.70;;;23.90;40.90;;;;;;4923229;28;46313;-65
2022/03/10 10:13:39;;;;;;;1.00;0.90;;;24.00;40.90;;;;;;4940127;28;45271;-65
2022/03/10 10:16:09;;;;;;;0.82;0.80;;;24.00;40.60;;;;;;4936155;28;45318;-66
2022/03/10 10:18:37;;;;;;;0.93;0.88;;;24.10;40.70;;;;;;4939410;28;45379;-66
2022/03/10 10:21:04;;;;;;;1.30;0.85;;;24.10;40.70;;;;;;4937166;28;45918;-65
2022/03/10 10:23:34;;;;;;;0.65;0.63;;;24.10;40.60;;;;;;4936317;28;45189;-65
2022/03/10 10:26:04;;;;;;;0.82;0.70;;;24.20;40.70;;;;;;4924206;28;45195;-66
2022/03/10 10:28:32;;;;;;;2.40;0.70;;;24.20;40.60;;;;;;4925006;28;45302;-65
2022/03/10 10:31:01;;;;;;;1.48;0.98;;;24.30;40.60;;;;;;4951259;28;46243;-66
2022/03/10 10:33:28;;;;;;;0.73;0.65;;;24.40;40.60;;;;;;4921380;28;45656;-66
2022/03/10 10:36:18;;;;;;;0.70;0.63;;;24.40;40.50;;;;;;4938404;28;45255;-65
2022/03/10 10:38:46;;;;;;;0.65;0.65;;;24.50;40.30;;;;;;4939373;28;45138;-66
2022/03/10 10:41:28;;;;;;;0.75;0.73;;;24.50;40.40;;;;;;4908677;28;45317;-66
2022/03/10 10:43:58;;;;;;;0.70;0.70;;;24.50;40.20;;;;;;4937435;28;44657;-66
2022/03/10 10:46:41;;;;;;;0.63;0.60;;;24.60;40.50;;;;;;4938892;28;45369;-66
2022/03/10 10:49:15;;;;;;;0.63;0.60;;;24.60;40.30;;;;;;4923917;28;45332;-65
2022/03/10 10:51:48;;;;;;;1.00;0.80;;;24.70;40.40;;;;;;4928276;28;45648;-66
2022/03/10 10:54:20;;;;;;;;;;;24.70;40.20;;;;;;4934632;28;45288;-66
2022/03/10 10:56:51;;;;;;;0.70;0.60;;;24.70;40.00;;;;;;4941298;28;45491;-66
2022/03/10 10:59:31;;;;;;;0.90;0.85;;;24.80;40.40;;;;;;4938109;28;45420;-66
2022/03/10 11:02:11;;;;;;;1.42;0.75;;;24.80;40.10;;;;;;4936473;28;47292;-66
2022/03/10 11:04:39;;;;;;;0.75;0.75;;;24.90;40.20;;;;;;4940179;28;45391;-66
2022/03/10 11:07:05;;;;;;;1.08;0.63;;;24.90;40.30;;;;;;4937291;28;45869;-67
2022/03/10 11:09:31;;;;;;;0.98;0.68;;;24.90;40.30;;;;;;4937554;28;45608;-66
2022/03/10 11:11:57;;;;;;;0.55;0.55;;;24.90;40.20;;;;;;4933119;28;46193;-69
2022/03/10 11:14:22;;;;;;;0.50;0.50;;;25.00;40.30;;;;;;4935891;28;45353;-67
2022/03/10 11:16:48;;;;;;;1.02;0.68;;;25.00;40.20;;;;;;4951559;28;46191;-65
2022/03/10 11:19:14;;;;;;;1.30;0.68;;;25.00;40.20;;;;;;4935755;28;45281;-65
2022/03/10 11:21:49;;;;;;;0.90;0.65;;;25.10;40.20;;;;;;4922286;28;46134;-65
2022/03/10 11:24:26;;;;;;;0.73;0.70;;;25.10;39.90;;;;;;4937252;28;45338;-66
2022/03/10 11:26:55;;;;;;;4.60;1.95;;;25.10;39.90;;;;;;4937578;28;45051;-64
2022/03/10 11:29:25;;;;;;;3.85;2.70;;;25.00;37.80;;;;;;4934963;28;45670;-67
2022/03/10 11:31:53;;;;;;;6.07;3.80;;;24.80;35.00;;;;;;4918251;28;46748;-64
2022/03/10 11:34:47;;;;;;;4.75;3.03;;;24.50;34.90;;;;;;4939550;28;45259;-65
2022/03/10 11:37:34;;;;;;;4.60;2.70;;;24.40;34.00;;;;;;4935288;28;45361;-65
2022/03/10 11:40:00;;;;;;;2.85;2.35;;;24.30;36.20;;;;;;4933224;28;45385;-64
2022/03/10 11:42:27;;;;;;;4.45;2.17;;;24.30;36.70;;;;;;4931903;28;44897;-65
2022/03/10 11:45:09;;;;;;;4.05;1.80;;;24.30;36.70;;;;;;4942180;28;44780;-65
2022/03/10 11:47:35;;;;;;;2.72;2.08;;;24.40;35.70;;;;;;4941848;28;45273;-64
2022/03/10 11:50:22;;;;;;;2.65;2.20;;;24.30;37.00;;;;;;4940631;28;45261;-64
2022/03/10 11:53:02;;;;;;;2.03;1.77;;;24.30;36.20;;;;;;4941781;28;45187;-63
2022/03/10 11:55:38;;;;;;;2.67;1.88;;;24.20;37.00;;;;;;4923297;28;45287;-65
2022/03/10 11:58:07;;;;;;;3.03;1.83;;;24.20;36.80;;;;;;4938509;28;45293;-64
2022/03/10 12:00:46;;;;;;;1.92;1.50;;;24.20;37.40;;;;;;4936094;28;45255;-65
2022/03/10 12:03:26;;;;;;;2.15;1.52;;;24.20;37.30;;;;;;4934406;28;47084;-64
2022/03/10 12:05:58;;;;;;;2.95;1.73;;;24.10;37.40;;;;;;4938132;28;45124;-64
2022/03/10 12:08:26;;;;;;;1.83;1.40;;;24.10;37.80;;;;;;4939796;28;45230;-65
2022/03/10 12:10:52;;;;;;;3.50;1.75;;;24.00;37.90;;;;;;4940634;28;44748;-65
2022/03/10 12:13:21;;;;;;;2.97;1.50;;;24.00;38.00;;;;;;4937885;28;46198;-64
2022/03/10 12:15:47;;;;;;;2.35;1.23;;;23.90;38.10;;;;;;4941515;28;45222;-65
2022/03/10 12:18:21;;;;;;;1.80;1.45;;;23.90;38.30;;;;;;4940506;28;45476;-65
2022/03/10 12:20:49;;;;;;;1.65;1.25;;;23.90;38.30;;;;;;4957254;28;45199;-64
2022/03/10 12:23:16;;;;;;;1.83;1.33;;;23.80;38.50;;;;;;4940459;28;45982;-65
2022/03/10 12:25:43;;;;;;;2.08;1.30;;;23.80;38.60;;;;;;4941670;28;44740;-65
2022/03/10 12:28:30;;;;;;;3.13;1.25;;;23.70;38.70;;;;;;4941627;28;45226;-64
2022/03/10 12:31:01;;;;;;;2.08;1.30;;;23.70;38.90;;;;;;4937768;28;45169;-65
2022/03/10 12:33:29;;;;;;;1.70;1.33;;;23.60;38.80;;;;;;4944726;28;46340;-65
2022/03/10 12:35:56;;;;;;;1.23;1.02;;;23.60;39.00;;;;;;4916328;28;45279;-65
2022/03/10 12:38:39;;;;;;;2.30;1.42;;;23.50;39.10;;;;;;4918759;28;45310;-65
2022/03/10 12:41:04;;;;;;;1.70;1.30;;;23.50;39.00;;;;;;4922421;28;44795;-65
2022/03/10 12:43:30;;;;;;;1.80;1.00;;;23.40;39.30;;;;;;4935571;28;46195;-65
2022/03/10 12:45:55;;;;;;;1.88;1.40;;;23.40;39.30;;;;;;4935523;28;45163;-64
2022/03/10 12:48:33;;;;;;;3.20;1.30;;;23.30;39.40;;;;;;4938539;28;44678;-65
2022/03/10 12:50:59;;;;;;;1.48;1.17;;;23.30;39.40;;;;;;4907955;28;45002;-66
2022/03/10 12:53:29;;;;;;;2.35;1.35;;;23.30;39.50;;;;;;4924279;28;45568;-66
2022/03/10 12:55:56;;;;;;;1.83;1.27;;;23.30;39.60;;;;;;4940866;28;45215;-65
2022/03/10 12:58:31;;;;;;;1.63;1.20;;;23.20;39.80;;;;;;4941296;28;45193;-65
2022/03/10 13:01:04;;;;;;;1.92;1.30;;;23.20;39.80;;;;;;4922364;28;45150;-66
2022/03/10 13:03:39;;;;;;;2.97;1.30;;;23.10;39.80;;;;;;4935100;28;45334;-66
2022/03/10 13:06:08;;;;;;;2.92;1.52;;;23.10;39.90;;;;;;4941663;28;45277;-66
2022/03/10 13:08:40;;;;;;;1.60;1.10;;;23.10;39.90;;;;;;4941281;28;45196;-66
2022/03/10 13:11:06;;;;;;;1.05;0.95;;;23.00;40.10;;;;;;4937333;28;45242;-66
2022/03/10 13:13:31;;;;;;;1.33;1.10;;;23.00;40.10;;;;;;4937398;28;45180;-66
2022/03/10 13:16:04;;;;;;;1.77;1.23;;;22.90;40.20;;;;;;4936849;28;45181;-66
2022/03/10 13:18:39;;;;;;;3.22;1.30;;;22.90;40.30;;;;;;4939364;28;44694;-65
2022/03/10 13:21:07;;;;;;;1.52;1.08;;;22.90;40.30;;;;;;4938465;28;45172;-66
2022/03/10 13:23:33;;;;;;;2.38;1.35;;;22.90;40.40;;;;;;4923003;28;46972;-66
2022/03/10 13:25:59;;;;;;;1.30;1.00;;;22.80;40.30;;;;;;4936657;28;45296;-66
2022/03/10 13:28:24;;;;;;;3.15;0.98;;;22.80;40.40;;;;;;4928125;28;44864;-65
2022/03/10 13:30:50;;;;;;;1.77;1.10;;;22.80;40.40;;;;;;4930344;28;45025;-65
2022/03/10 13:33:17;;;;;;;2.08;1.30;;;22.70;40.60;;;;;;4935982;28;48232;-64
2022/03/10 13:35:44;;;;;;;1.80;1.33;;;22.70;40.60;;;;;;4922119;28;45561;-65
2022/03/10 13:38:24;;;;;;;1.40;1.10;;;22.70;40.70;;;;;;4938533;28;45354;-65
2022/03/10 13:40:51;;;;;;;1.67;1.38;;;22.60;40.60;;;;;;4934478;28;44866;-66
2022/03/10 13:43:24;;;;;;;3.75;1.40;;;22.60;40.70;;;;;;4936224;28;47419;-65
2022/03/10 13:45:50;;;;;;;;;;;22.60;40.80;;;;;;4947613;28;45237;-66
2022/03/10 13:48:23;;;;;;;3.60;1.00;;;22.50;41.00;;;;;;4939749;28;45207;-65
2022/03/10 13:50:49;;;;;;;3.55;1.17;;;22.50;41.20;;;;;;4952978;28;45538;-65
2022/03/10 13:53:15;;;;;;;1.67;1.48;;;22.40;41.00;;;;;;4930713;28;46825;-65
2022/03/10 13:55:40;;;;;;;1.38;0.85;;;22.40;41.00;;;;;;4933380;28;45309;-65
2022/03/10 13:58:06;;;;;;;2.60;1.13;;;22.40;41.10;;;;;;4940378;28;45162;-66
2022/03/10 14:00:40;;;;;;;1.58;1.05;;;22.40;41.10;;;;;;4933842;28;45300;-65
2022/03/10 14:03:06;;;;;;;1.75;1.17;;;22.40;41.20;;;;;;4941006;28;47295;-66
2022/03/10 14:05:47;;;;;;;2.33;1.35;;;22.30;41.20;;;;;;4935674;28;45088;-65
2022/03/10 14:08:17;;;;;;;1.33;1.15;;;22.30;41.20;;;;;;4924101;28;45321;-65
2022/03/10 14:10:44;;;;;;;2.35;1.42;;;22.20;41.40;;;;;;4939344;28;44905;-64
2022/03/10 14:13:10;;;;;;;1.95;1.35;;;22.20;41.50;;;;;;4942679;28;45457;-65
2022/03/10 14:15:40;;;;;;;1.38;1.08;;;22.10;41.50;;;;;;4942508;28;45593;-65
2022/03/10 14:18:07;;;;;;;1.77;1.17;;;22.10;41.50;;;;;;4958716;28;45268;-64
2022/03/10 14:20:50;;;;;;;2.42;1.13;;;22.10;41.50;;;;;;4943525;28;45398;-64
2022/03/10 14:23:20;;;;;;;1.88;1.15;;;22.10;41.60;;;;;;4941484;28;45956;-67
2022/03/10 14:25:47;;;;;;;2.00;1.23;;;22.10;41.70;;;;;;4938121;28;45380;-64
2022/03/10 14:28:14;;;;;;;3.13;1.40;;;22.10;41.70;;;;;;4941440;28;45267;-65
2022/03/10 14:30:39;;;;;;;1.25;1.00;;;22.00;41.70;;;;;;4923407;28;45220;-67
2022/03/10 14:33:06;;;;;;;1.88;1.38;;;22.00;41.80;;;;;;4938571;28;46116;-63
2022/03/10 14:35:32;;;;;;;1.90;1.33;;;21.90;41.70;;;;;;4935491;28;45472;-64
2022/03/10 14:37:58;;;;;;;1.80;1.40;;;21.90;41.80;;;;;;4928103;28;45073;-65
2022/03/10 14:40:24;;;;;;;2.50;1.15;;;21.90;41.70;;;;;;4934176;28;45113;-65
2022/03/10 14:42:49;;;;;;;1.23;0.93;;;21.90;41.80;;;;;;4934799;28;47250;-65
2022/03/10 14:45:15;;;;;;;1.52;1.23;;;21.90;41.90;;;;;;4937365;28;44985;-64
2022/03/10 14:47:40;;;;;;;1.73;1.30;;;21.80;41.90;;;;;;4956885;28;45235;-64
2022/03/10 14:50:06;;;;;;;4.18;1.40;;;21.80;42.00;;;;;;4939515;28;44881;-64
2022/03/10 14:52:32;;;;;;;1.52;1.00;;;21.80;42.00;;;;;;4937926;28;45582;-65
2022/03/10 14:54:57;;;;;;;1.42;1.00;;;21.80;42.10;;;;;;4941347;28;45227;-64
2022/03/10 14:57:23;;;;;;;2.08;1.10;;;21.70;42.10;;;;;;4941931;28;44934;-64
2022/03/10 14:59:49;;;;;;;2.03;1.10;;;21.60;42.20;;;;;;4936045;28;44704;-64
2022/03/10 15:02:14;;;;;;;3.20;1.23;;;21.60;42.20;;;;;;4949889;28;47799;-64
2022/03/10 15:04:40;;;;;;;1.33;1.00;;;21.60;42.30;;;;;;4940247;28;44842;-63
2022/03/10 15:07:07;;;;;;;2.85;1.13;;;21.60;42.40;;;;;;4938862;28;45249;-64
2022/03/10 15:09:32;;;;;;;1.83;1.17;;;21.50;42.40;;;;;;4939387;28;45247;-64
2022/03/10 15:11:58;;;;;;;1.77;1.10;;;21.50;42.40;;;;;;4936629;28;45470;-64
2022/03/10 15:14:24;;;;;;;1.42;1.13;;;21.50;42.50;;;;;;4927813;28;44747;-64
2022/03/10 15:16:49;;;;;;;3.05;1.23;;;21.50;42.40;;;;;;4933162;28;46131;-65
2022/03/10 15:19:16;;;;;;;2.30;1.35;;;21.50;42.50;;;;;;4948518;28;45480;-64
2022/03/10 15:21:42;;;;;;;1.42;0.93;;;21.50;42.40;;;;;;4916473;28;47197;-65
2022/03/10 15:24:08;;;;;;;2.42;1.23;;;21.50;42.50;;;;;;4917444;28;45642;-64
2022/03/10 15:26:35;;;;;;;1.58;1.10;;;21.50;42.50;;;;;;4947147;28;45317;-64
2022/03/10 15:29:01;;;;;;;1.30;1.00;;;21.50;42.50;;;;;;4934392;28;45720;-66
2022/03/10 15:31:27;;;;;;;1.88;1.17;;;21.40;42.50;;;;;;4933728;28;46028;-64
2022/03/10 15:33:52;;;;;;;1.83;1.23;;;21.40;42.60;;;;;;4933900;28;45563;-64
2022/03/10 15:36:18;;;;;;;1.33;1.20;;;21.40;42.60;;;;;;4934046;28;45551;-64
2022/03/10 15:38:46;;;;;;;1.90;1.23;;;21.40;42.80;;;;;;4937537;28;45520;-63
2022/03/10 15:41:11;;;;;;;1.52;1.15;;;21.40;42.70;;;;;;4938777;28;45335;-65
2022/03/10 15:43:41;;;;;;;1.92;1.10;;;21.30;42.70;;;;;;4920816;28;45565;-65
2022/03/10 15:46:06;;;;;;;1.17;1.00;;;21.30;42.70;;;;;;4929451;28;45552;-64
2022/03/10 15:48:32;;;;;;;1.73;1.30;;;21.30;42.70;;;;;;4932592;28;45367;-65
2022/03/10 15:50:58;;;;;;;2.40;1.30;;;21.40;42.60;;;;;;4946240;28;45581;-65
2022/03/10 15:53:25;;;;;;;1.73;1.30;;;21.30;42.60;;;;;;4951162;28;45215;-65
2022/03/10 15:55:53;;;;;;;1.35;1.20;;;21.30;42.60;;;;;;4929175;28;45728;-65
2022/03/10 15:58:19;;;;;;;1.30;1.10;;;21.30;42.70;;;;;;4934355;28;45306;-65
2022/03/10 16:00:44;;;;;;;1.13;1.00;;;21.30;42.70;;;;;;4930454;28;45573;-65
2022/03/10 16:03:10;;;;;;;2.30;1.50;;;21.30;42.80;;;;;;4935362;28;44948;-65
2022/03/10 16:05:36;;;;;;;1.25;0.95;;;21.30;42.80;;;;;;4949444;28;45482;-65
2022/03/10 16:08:02;;;;;;;1.67;1.25;;;21.30;42.80;;;;;;4930918;28;45489;-65
2022/03/10 16:10:28;;;;;;;3.33;1.63;;;21.30;42.80;;;;;;4935363;28;45315;-64
2022/03/10 16:12:53;;;;;;;1.58;1.08;;;21.20;42.80;;;;;;4936364;28;44914;-65
2022/03/10 16:15:19;;;;;;;1.10;0.98;;;21.20;42.80;;;;;;4936101;28;45254;-64
2022/03/10 16:17:45;;;;;;;1.90;1.40;;;21.20;42.90;;;;;;4935642;28;45652;-66
2022/03/10 16:20:11;;;;;;;1.23;1.13;;;21.20;42.80;;;;;;4920439;28;47389;-66
2022/03/10 16:22:42;;;;;;;1.13;1.02;;;21.10;42.90;;;;;;4918677;28;45453;-65
2022/03/10 16:25:10;;;;;;;3.40;1.23;;;21.10;43.00;;;;;;4951406;28;45994;-66
2022/03/10 16:27:36;;;;;;;1.70;1.27;;;21.00;43.00;;;;;;4937134;28;45572;-65
2022/03/10 16:30:02;;;;;;;1.48;1.00;;;21.00;43.00;;;;;;4934947;28;45297;-66
2022/03/10 16:32:28;;;;;;;2.38;1.33;;;21.10;43.00;;;;;;4921262;28;45012;-66
2022/03/10 16:34:54;;;;;;;1.92;1.23;;;21.00;42.90;;;;;;4928758;28;45585;-64
2022/03/10 16:37:19;;;;;;;1.10;0.93;;;21.10;42.90;;;;;;4935483;28;45275;-63
2022/03/10 16:39:45;;;;;;;2.15;1.30;;;21.10;42.90;;;;;;4949980;28;46055;-64
2022/03/10 16:42:15;;;;;;;1.20;1.00;;;21.00;42.90;;;;;;4932873;28;46779;-64
2022/03/10 16:44:46;;;;;;;1.23;1.00;;;21.00;42.90;;;;;;4935730;28;45106;-66
2022/03/10 16:47:14;;;;;;;1.83;1.10;;;20.90;43.10;;;;;;4932096;28;45573;-64
2022/03/10 16:49:39;;;;;;;3.83;1.30;;;20.90;43.10;;;;;;4934253;28;45002;-64